sensor_id;sensor_type;location;lat;lon;timestamp;temperature;humidity
48416;DHT22;34227;51.840;4.146;2022-08-19T00:01:50;19.20;77.50
48416;DHT22;34227;51.840;4.146;2022-08-19T00:04:19;19.20;77.50
48416;DHT22;34227;51.840;4.146;2022-08-19T00:06:45;19.20;77.50
48416;DHT22;34227;51.840;4.146;2022-08-19T00:09:14;19.10;77.50
48416;DHT22;34227;51.840;4.146;2022-08-19T00:11:40;19.10;77.50
48416;DHT22;34227;51.840;4.146;2022-08-19T00:14:08;19.10;77.40
48416;DHT22;34227;51.840;4.146;2022-08-19T00:16:39;19.10;77.50
48416;DHT22;34227;51.840;4.146;2022-08-19T00:19:07;19.10;77.50
48416;DHT22;34227;51.840;4.146;2022-08-19T00:21:33;19.00;77.60
48416;DHT22;34227;51.840;4.146;2022-08-19T00:24:09;19.10;77.70
48416;DHT22;34227;51.840;4.146;2022-08-19T00:26:39;19.10;77.70
48416;DHT22;34227;51.840;4.146;2022-08-19T00:29:10;19.00;77.60
48416;DHT22;34227;51.840;4.146;2022-08-19T00:31:36;19.00;77.60
48416;DHT22;34227;51.840;4.146;2022-08-19T00:34:02;19.00;77.60
48416;DHT22;34227;51.840;4.146;2022-08-19T00:36:28;19.00;77.60
48416;DHT22;34227;51.840;4.146;2022-08-19T00:38:54;18.90;77.50
48416;DHT22;34227;51.840;4.146;2022-08-19T00:41:21;18.90;77.40
48416;DHT22;34227;51.840;4.146;2022-08-19T00:46:23;18.90;77.50
48416;DHT22;34227;51.840;4.146;2022-08-19T00:48:48;18.90;77.30
48416;DHT22;34227;51.840;4.146;2022-08-19T00:51:14;18.90;77.40
48416;DHT22;34227;51.840;4.146;2022-08-19T00:53:40;18.90;77.50
48416;DHT22;34227;51.840;4.146;2022-08-19T00:56:06;18.80;77.40
48416;DHT22;34227;51.840;4.146;2022-08-19T00:58:34;18.80;77.40
48416;DHT22;34227;51.840;4.146;2022-08-19T01:01:03;18.80;78.10
48416;DHT22;34227;51.840;4.146;2022-08-19T01:03:29;18.80;77.20
48416;DHT22;34227;51.840;4.146;2022-08-19T01:05:54;18.80;77.20
48416;DHT22;34227;51.840;4.146;2022-08-19T01:08:21;18.80;77.10
48416;DHT22;34227;51.840;4.146;2022-08-19T01:10:54;18.80;77.10
48416;DHT22;34227;51.840;4.146;2022-08-19T01:13:25;18.80;77.00
48416;DHT22;34227;51.840;4.146;2022-08-19T01:16:04;18.80;77.10
48416;DHT22;34227;51.840;4.146;2022-08-19T01:18:32;18.70;77.10
48416;DHT22;34227;51.840;4.146;2022-08-19T01:21:05;18.80;77.30
48416;DHT22;34227;51.840;4.146;2022-08-19T01:23:33;18.70;77.40
48416;DHT22;34227;51.840;4.146;2022-08-19T01:26:27;18.70;77.30
48416;DHT22;34227;51.840;4.146;2022-08-19T01:28:56;18.80;77.40
48416;DHT22;34227;51.840;4.146;2022-08-19T01:31:26;18.70;77.20
48416;DHT22;34227;51.840;4.146;2022-08-19T01:33:56;18.70;77.40
48416;DHT22;34227;51.840;4.146;2022-08-19T01:36:27;18.80;77.40
48416;DHT22;34227;51.840;4.146;2022-08-19T01:38:54;18.70;77.30
48416;DHT22;34227;51.840;4.146;2022-08-19T01:41:20;18.70;77.20
48416;DHT22;34227;51.840;4.146;2022-08-19T01:43:49;18.70;77.50
48416;DHT22;34227;51.840;4.146;2022-08-19T01:46:16;18.70;77.40
48416;DHT22;34227;51.840;4.146;2022-08-19T01:48:42;18.70;77.20
48416;DHT22;34227;51.840;4.146;2022-08-19T01:51:10;18.60;77.10
48416;DHT22;34227;51.840;4.146;2022-08-19T01:53:36;18.70;77.20
48416;DHT22;34227;51.840;4.146;2022-08-19T01:56:03;18.70;77.40
48416;DHT22;34227;51.840;4.146;2022-08-19T01:58:33;18.70;77.10
48416;DHT22;34227;51.840;4.146;2022-08-19T02:01:01;18.70;77.60
48416;DHT22;34227;51.840;4.146;2022-08-19T02:03:27;18.60;77.20
48416;DHT22;34227;51.840;4.146;2022-08-19T02:05:59;18.70;77.40
48416;DHT22;34227;51.840;4.146;2022-08-19T02:08:32;18.70;77.50
48416;DHT22;34227;51.840;4.146;2022-08-19T02:10:58;18.70;77.90
48416;DHT22;34227;51.840;4.146;2022-08-19T02:13:25;18.60;77.90
48416;DHT22;34227;51.840;4.146;2022-08-19T02:15:51;18.70;77.70
48416;DHT22;34227;51.840;4.146;2022-08-19T02:18:17;18.60;78.10
48416;DHT22;34227;51.840;4.146;2022-08-19T02:20:44;18.70;78.00
48416;DHT22;34227;51.840;4.146;2022-08-19T02:23:11;18.60;78.10
48416;DHT22;34227;51.840;4.146;2022-08-19T02:25:37;18.60;79.10
48416;DHT22;34227;51.840;4.146;2022-08-19T02:28:03;18.60;78.50
48416;DHT22;34227;51.840;4.146;2022-08-19T02:30:29;18.60;78.60
48416;DHT22;34227;51.840;4.146;2022-08-19T02:32:55;18.60;78.70
48416;DHT22;34227;51.840;4.146;2022-08-19T02:35:21;18.60;78.70
48416;DHT22;34227;51.840;4.146;2022-08-19T02:37:46;18.60;78.90
48416;DHT22;34227;51.840;4.146;2022-08-19T02:40:32;18.60;78.50
48416;DHT22;34227;51.840;4.146;2022-08-19T02:43:02;18.70;79.20
48416;DHT22;34227;51.840;4.146;2022-08-19T02:45:37;18.60;79.00
48416;DHT22;34227;51.840;4.146;2022-08-19T02:48:03;18.60;78.30
48416;DHT22;34227;51.840;4.146;2022-08-19T02:50:31;18.60;78.50
48416;DHT22;34227;51.840;4.146;2022-08-19T02:52:56;18.60;78.60
48416;DHT22;34227;51.840;4.146;2022-08-19T02:55:22;18.60;78.60
48416;DHT22;34227;51.840;4.146;2022-08-19T02:57:48;18.60;78.50
48416;DHT22;34227;51.840;4.146;2022-08-19T03:00:15;18.60;78.50
48416;DHT22;34227;51.840;4.146;2022-08-19T03:02:41;18.60;78.70
48416;DHT22;34227;51.840;4.146;2022-08-19T03:05:08;18.60;78.10
48416;DHT22;34227;51.840;4.146;2022-08-19T03:07:38;18.60;78.50
48416;DHT22;34227;51.840;4.146;2022-08-19T03:10:04;18.60;78.50
48416;DHT22;34227;51.840;4.146;2022-08-19T03:12:34;18.60;79.00
48416;DHT22;34227;51.840;4.146;2022-08-19T03:15:00;18.60;78.80
48416;DHT22;34227;51.840;4.146;2022-08-19T03:17:26;18.60;78.70
48416;DHT22;34227;51.840;4.146;2022-08-19T03:19:51;18.60;78.60
48416;DHT22;34227;51.840;4.146;2022-08-19T03:22:17;18.50;78.80
48416;DHT22;34227;51.840;4.146;2022-08-19T03:24:43;18.60;78.50
48416;DHT22;34227;51.840;4.146;2022-08-19T03:27:09;18.50;78.70
48416;DHT22;34227;51.840;4.146;2022-08-19T03:29:36;18.50;78.50
48416;DHT22;34227;51.840;4.146;2022-08-19T03:32:04;18.50;78.40
48416;DHT22;34227;51.840;4.146;2022-08-19T03:34:34;18.50;78.90
48416;DHT22;34227;51.840;4.146;2022-08-19T03:37:07;18.50;79.00
48416;DHT22;34227;51.840;4.146;2022-08-19T03:39:33;18.50;79.20
48416;DHT22;34227;51.840;4.146;2022-08-19T03:42:00;18.50;79.10
48416;DHT22;34227;51.840;4.146;2022-08-19T03:44:28;18.50;79.40
48416;DHT22;34227;51.840;4.146;2022-08-19T03:46:57;18.50;79.30
48416;DHT22;34227;51.840;4.146;2022-08-19T03:49:28;18.50;79.30
48416;DHT22;34227;51.840;4.146;2022-08-19T03:51:55;18.50;79.00
48416;DHT22;34227;51.840;4.146;2022-08-19T03:54:23;18.50;78.90
48416;DHT22;34227;51.840;4.146;2022-08-19T03:56:51;18.50;79.50
48416;DHT22;34227;51.840;4.146;2022-08-19T03:59:24;18.50;78.70
48416;DHT22;34227;51.840;4.146;2022-08-19T04:01:50;18.50;80.30
48416;DHT22;34227;51.840;4.146;2022-08-19T04:04:16;18.60;79.60
48416;DHT22;34227;51.840;4.146;2022-08-19T04:06:43;18.60;80.20
48416;DHT22;34227;51.840;4.146;2022-08-19T04:09:10;18.60;80.50
48416;DHT22;34227;51.840;4.146;2022-08-19T04:11:42;18.60;80.40
48416;DHT22;34227;51.840;4.146;2022-08-19T04:14:13;18.60;81.00
48416;DHT22;34227;51.840;4.146;2022-08-19T04:16:39;18.60;80.40
48416;DHT22;34227;51.840;4.146;2022-08-19T04:19:08;18.60;80.60
48416;DHT22;34227;51.840;4.146;2022-08-19T04:21:34;18.60;80.00
48416;DHT22;34227;51.840;4.146;2022-08-19T04:24:00;18.60;79.90
48416;DHT22;34227;51.840;4.146;2022-08-19T04:26:28;18.70;79.90
48416;DHT22;34227;51.840;4.146;2022-08-19T04:28:58;18.70;79.80
48416;DHT22;34227;51.840;4.146;2022-08-19T04:31:27;18.70;79.70
48416;DHT22;34227;51.840;4.146;2022-08-19T04:33:58;18.70;79.50
48416;DHT22;34227;51.840;4.146;2022-08-19T04:36:27;18.70;79.80
48416;DHT22;34227;51.840;4.146;2022-08-19T04:38:56;18.70;79.30
48416;DHT22;34227;51.840;4.146;2022-08-19T04:41:22;18.70;79.60
48416;DHT22;34227;51.840;4.146;2022-08-19T04:44:06;18.70;79.40
48416;DHT22;34227;51.840;4.146;2022-08-19T04:46:32;18.70;79.10
48416;DHT22;34227;51.840;4.146;2022-08-19T04:48:59;18.70;78.80
48416;DHT22;34227;51.840;4.146;2022-08-19T04:51:27;18.70;79.20
48416;DHT22;34227;51.840;4.146;2022-08-19T04:53:57;18.60;78.90
48416;DHT22;34227;51.840;4.146;2022-08-19T04:56:23;18.60;79.30
48416;DHT22;34227;51.840;4.146;2022-08-19T04:58:52;18.60;79.10
48416;DHT22;34227;51.840;4.146;2022-08-19T05:01:26;18.60;79.10
48416;DHT22;34227;51.840;4.146;2022-08-19T05:03:52;18.60;79.30
48416;DHT22;34227;51.840;4.146;2022-08-19T05:06:20;18.60;79.70
48416;DHT22;34227;51.840;4.146;2022-08-19T05:08:46;18.60;79.40
48416;DHT22;34227;51.840;4.146;2022-08-19T05:11:27;18.60;79.40
48416;DHT22;34227;51.840;4.146;2022-08-19T05:13:54;18.70;79.80
48416;DHT22;34227;51.840;4.146;2022-08-19T05:16:21;18.70;79.40
48416;DHT22;34227;51.840;4.146;2022-08-19T05:18:48;18.70;79.80
48416;DHT22;34227;51.840;4.146;2022-08-19T05:21:33;18.70;79.60
48416;DHT22;34227;51.840;4.146;2022-08-19T05:24:18;18.70;79.70
48416;DHT22;34227;51.840;4.146;2022-08-19T05:26:47;18.70;79.90
48416;DHT22;34227;51.840;4.146;2022-08-19T05:29:15;18.70;79.50
48416;DHT22;34227;51.840;4.146;2022-08-19T05:31:41;18.70;79.60
48416;DHT22;34227;51.840;4.146;2022-08-19T05:34:08;18.80;80.30
48416;DHT22;34227;51.840;4.146;2022-08-19T05:36:42;18.80;80.00
48416;DHT22;34227;51.840;4.146;2022-08-19T05:39:12;18.80;80.00
48416;DHT22;34227;51.840;4.146;2022-08-19T05:41:43;18.80;79.90
48416;DHT22;34227;51.840;4.146;2022-08-19T05:44:09;18.90;79.70
48416;DHT22;34227;51.840;4.146;2022-08-19T05:46:38;18.90;80.60
48416;DHT22;34227;51.840;4.146;2022-08-19T05:49:07;19.00;80.30
48416;DHT22;34227;51.840;4.146;2022-08-19T05:51:34;19.00;79.30
48416;DHT22;34227;51.840;4.146;2022-08-19T05:54:05;19.10;79.30
48416;DHT22;34227;51.840;4.146;2022-08-19T05:56:32;19.10;79.30
48416;DHT22;34227;51.840;4.146;2022-08-19T05:58:58;19.10;79.10
48416;DHT22;34227;51.840;4.146;2022-08-19T06:01:26;19.20;79.30
48416;DHT22;34227;51.840;4.146;2022-08-19T06:03:52;19.20;79.00
48416;DHT22;34227;51.840;4.146;2022-08-19T06:06:19;19.30;79.60
48416;DHT22;34227;51.840;4.146;2022-08-19T06:08:45;19.30;79.30
48416;DHT22;34227;51.840;4.146;2022-08-19T06:11:41;19.40;79.50
48416;DHT22;34227;51.840;4.146;2022-08-19T06:14:08;19.50;79.50
48416;DHT22;34227;51.840;4.146;2022-08-19T06:16:35;19.60;79.60
48416;DHT22;34227;51.840;4.146;2022-08-19T06:19:04;19.70;79.60
48416;DHT22;34227;51.840;4.146;2022-08-19T06:21:31;19.80;79.50
48416;DHT22;34227;51.840;4.146;2022-08-19T06:23:58;19.80;79.60
48416;DHT22;34227;51.840;4.146;2022-08-19T06:26:24;20.00;79.30
48416;DHT22;34227;51.840;4.146;2022-08-19T06:28:50;20.10;79.10
48416;DHT22;34227;51.840;4.146;2022-08-19T06:31:23;20.20;79.60
48416;DHT22;34227;51.840;4.146;2022-08-19T06:33:49;20.30;79.00
48416;DHT22;34227;51.840;4.146;2022-08-19T06:36:19;20.40;78.50
48416;DHT22;34227;51.840;4.146;2022-08-19T06:38:45;20.50;78.80
48416;DHT22;34227;51.840;4.146;2022-08-19T06:41:11;20.70;78.90
48416;DHT22;34227;51.840;4.146;2022-08-19T06:43:36;20.80;79.40
48416;DHT22;34227;51.840;4.146;2022-08-19T06:46:03;20.90;79.70
48416;DHT22;34227;51.840;4.146;2022-08-19T06:48:30;21.10;79.30
48416;DHT22;34227;51.840;4.146;2022-08-19T06:50:55;21.30;78.80
48416;DHT22;34227;51.840;4.146;2022-08-19T06:53:21;21.50;78.30
48416;DHT22;34227;51.840;4.146;2022-08-19T06:55:47;21.70;77.80
48416;DHT22;34227;51.840;4.146;2022-08-19T06:58:13;21.90;78.70
48416;DHT22;34227;51.840;4.146;2022-08-19T07:00:39;22.00;77.50
48416;DHT22;34227;51.840;4.146;2022-08-19T07:03:05;22.10;77.10
48416;DHT22;34227;51.840;4.146;2022-08-19T07:05:31;22.20;77.00
48416;DHT22;34227;51.840;4.146;2022-08-19T07:07:57;22.30;76.80
48416;DHT22;34227;51.840;4.146;2022-08-19T07:10:23;22.50;76.70
48416;DHT22;34227;51.840;4.146;2022-08-19T07:12:48;22.60;76.10
48416;DHT22;34227;51.840;4.146;2022-08-19T07:15:15;22.60;76.00
48416;DHT22;34227;51.840;4.146;2022-08-19T07:17:41;22.70;76.50
48416;DHT22;34227;51.840;4.146;2022-08-19T07:20:09;22.80;75.70
48416;DHT22;34227;51.840;4.146;2022-08-19T07:22:39;22.90;75.50
48416;DHT22;34227;51.840;4.146;2022-08-19T07:25:08;23.00;75.10
48416;DHT22;34227;51.840;4.146;2022-08-19T07:27:35;23.00;75.20
48416;DHT22;34227;51.840;4.146;2022-08-19T07:30:03;23.10;75.10
48416;DHT22;34227;51.840;4.146;2022-08-19T07:32:30;23.10;74.90
48416;DHT22;34227;51.840;4.146;2022-08-19T07:34:56;23.20;74.80
48416;DHT22;34227;51.840;4.146;2022-08-19T07:37:23;23.20;74.70
48416;DHT22;34227;51.840;4.146;2022-08-19T07:39:49;23.30;76.50
48416;DHT22;34227;51.840;4.146;2022-08-19T07:42:14;23.40;76.80
48416;DHT22;34227;51.840;4.146;2022-08-19T07:44:41;23.70;78.90
48416;DHT22;34227;51.840;4.146;2022-08-19T07:47:06;24.10;78.20
48416;DHT22;34227;51.840;4.146;2022-08-19T07:49:33;24.50;77.40
48416;DHT22;34227;51.840;4.146;2022-08-19T07:52:03;24.90;77.20
48416;DHT22;34227;51.840;4.146;2022-08-19T07:54:31;25.30;76.60
48416;DHT22;34227;51.840;4.146;2022-08-19T07:57:00;25.70;75.50
48416;DHT22;34227;51.840;4.146;2022-08-19T07:59:27;26.10;74.80
48416;DHT22;34227;51.840;4.146;2022-08-19T08:01:54;26.40;73.80
48416;DHT22;34227;51.840;4.146;2022-08-19T08:04:21;26.60;72.80
48416;DHT22;34227;51.840;4.146;2022-08-19T08:07:06;26.80;71.90
48416;DHT22;34227;51.840;4.146;2022-08-19T08:09:51;26.90;71.50
48416;DHT22;34227;51.840;4.146;2022-08-19T08:12:24;26.90;71.20
48416;DHT22;34227;51.840;4.146;2022-08-19T08:14:57;26.90;71.40
48416;DHT22;34227;51.840;4.146;2022-08-19T08:17:26;26.90;71.50
48416;DHT22;34227;51.840;4.146;2022-08-19T08:19:52;27.00;71.30
48416;DHT22;34227;51.840;4.146;2022-08-19T08:22:20;27.00;71.10
48416;DHT22;34227;51.840;4.146;2022-08-19T08:25:14;27.00;71.10
48416;DHT22;34227;51.840;4.146;2022-08-19T08:27:42;27.10;71.20
48416;DHT22;34227;51.840;4.146;2022-08-19T08:30:18;27.20;71.30
48416;DHT22;34227;51.840;4.146;2022-08-19T08:32:44;27.40;71.30
48416;DHT22;34227;51.840;4.146;2022-08-19T08:35:13;27.50;71.00
48416;DHT22;34227;51.840;4.146;2022-08-19T08:37:39;27.60;70.70
48416;DHT22;34227;51.840;4.146;2022-08-19T08:40:57;27.60;70.30
48416;DHT22;34227;51.840;4.146;2022-08-19T08:43:08;27.70;69.80
48416;DHT22;34227;51.840;4.146;2022-08-19T08:45:41;27.70;69.60
48416;DHT22;34227;51.840;4.146;2022-08-19T08:48:19;27.70;69.50
48416;DHT22;34227;51.840;4.146;2022-08-19T08:50:47;27.60;69.30
48416;DHT22;34227;51.840;4.146;2022-08-19T08:53:19;27.60;69.30
48416;DHT22;34227;51.840;4.146;2022-08-19T08:55:46;27.60;69.20
48416;DHT22;34227;51.840;4.146;2022-08-19T08:58:18;27.60;69.20
48416;DHT22;34227;51.840;4.146;2022-08-19T09:00:47;27.60;69.20
48416;DHT22;34227;51.840;4.146;2022-08-19T09:03:25;27.50;69.10
48416;DHT22;34227;51.840;4.146;2022-08-19T09:06:35;27.50;69.10
48416;DHT22;34227;51.840;4.146;2022-08-19T09:09:15;27.50;68.90
48416;DHT22;34227;51.840;4.146;2022-08-19T09:17:14;27.40;70.30
48416;DHT22;34227;51.840;4.146;2022-08-19T09:19:57;27.50;70.30
48416;DHT22;34227;51.840;4.146;2022-08-19T09:22:23;27.70;70.20
48416;DHT22;34227;51.840;4.146;2022-08-19T09:24:50;27.80;69.70
48416;DHT22;34227;51.840;4.146;2022-08-19T09:27:18;27.90;69.20
48416;DHT22;34227;51.840;4.146;2022-08-19T09:29:46;27.90;69.10
48416;DHT22;34227;51.840;4.146;2022-08-19T09:32:14;28.00;69.20
48416;DHT22;34227;51.840;4.146;2022-08-19T09:34:40;28.00;69.00
48416;DHT22;34227;51.840;4.146;2022-08-19T09:37:07;28.10;68.80
48416;DHT22;34227;51.840;4.146;2022-08-19T09:39:32;28.20;68.70
48416;DHT22;34227;51.840;4.146;2022-08-19T09:41:58;28.20;68.50
48416;DHT22;34227;51.840;4.146;2022-08-19T09:44:24;28.20;68.40
48416;DHT22;34227;51.840;4.146;2022-08-19T09:46:50;28.10;68.00
48416;DHT22;34227;51.840;4.146;2022-08-19T09:49:18;28.20;67.90
48416;DHT22;34227;51.840;4.146;2022-08-19T09:51:44;28.10;67.70
48416;DHT22;34227;51.840;4.146;2022-08-19T09:54:10;28.10;67.60
48416;DHT22;34227;51.840;4.146;2022-08-19T09:56:36;28.00;67.60
48416;DHT22;34227;51.840;4.146;2022-08-19T09:59:03;28.00;67.80
48416;DHT22;34227;51.840;4.146;2022-08-19T10:01:30;27.90;67.70
48416;DHT22;34227;51.840;4.146;2022-08-19T10:03:58;27.90;67.80
48416;DHT22;34227;51.840;4.146;2022-08-19T10:06:25;28.00;68.00
48416;DHT22;34227;51.840;4.146;2022-08-19T10:08:52;28.00;68.00
48416;DHT22;34227;51.840;4.146;2022-08-19T10:11:19;27.90;67.90
48416;DHT22;34227;51.840;4.146;2022-08-19T10:13:45;28.00;67.90
48416;DHT22;34227;51.840;4.146;2022-08-19T10:16:18;27.90;67.70
48416;DHT22;34227;51.840;4.146;2022-08-19T10:18:45;27.90;67.70
48416;DHT22;34227;51.840;4.146;2022-08-19T10:21:21;27.90;67.80
48416;DHT22;34227;51.840;4.146;2022-08-19T10:23:49;27.90;67.80
48416;DHT22;34227;51.840;4.146;2022-08-19T10:26:27;27.90;67.80
48416;DHT22;34227;51.840;4.146;2022-08-19T10:28:56;27.90;67.80
48416;DHT22;34227;51.840;4.146;2022-08-19T10:31:25;27.80;67.70
48416;DHT22;34227;51.840;4.146;2022-08-19T10:33:52;27.80;67.80
48416;DHT22;34227;51.840;4.146;2022-08-19T10:36:28;27.80;67.90
48416;DHT22;34227;51.840;4.146;2022-08-19T10:38:55;27.80;68.00
48416;DHT22;34227;51.840;4.146;2022-08-19T10:41:26;27.80;68.10
48416;DHT22;34227;51.840;4.146;2022-08-19T10:43:54;27.90;68.20
48416;DHT22;34227;51.840;4.146;2022-08-19T10:46:25;27.90;68.30
48416;DHT22;34227;51.840;4.146;2022-08-19T10:48:51;27.90;68.30
48416;DHT22;34227;51.840;4.146;2022-08-19T10:51:16;27.90;68.50
48416;DHT22;34227;51.840;4.146;2022-08-19T10:54:01;28.00;68.10
48416;DHT22;34227;51.840;4.146;2022-08-19T10:56:28;27.90;67.80
48416;DHT22;34227;51.840;4.146;2022-08-19T10:59:13;28.00;67.80
48416;DHT22;34227;51.840;4.146;2022-08-19T11:01:41;28.00;67.60
48416;DHT22;34227;51.840;4.146;2022-08-19T11:04:08;27.90;67.50
48416;DHT22;34227;51.840;4.146;2022-08-19T11:06:40;27.90;67.60
48416;DHT22;34227;51.840;4.146;2022-08-19T11:09:07;27.90;67.80
48416;DHT22;34227;51.840;4.146;2022-08-19T11:11:34;27.90;68.20
48416;DHT22;34227;51.840;4.146;2022-08-19T11:14:12;28.00;68.50
48416;DHT22;34227;51.840;4.146;2022-08-19T11:16:40;28.00;68.60
48416;DHT22;34227;51.840;4.146;2022-08-19T11:19:07;28.00;68.60
48416;DHT22;34227;51.840;4.146;2022-08-19T11:21:36;28.10;68.50
48416;DHT22;34227;51.840;4.146;2022-08-19T11:24:09;28.20;68.30
48416;DHT22;34227;51.840;4.146;2022-08-19T11:26:36;28.20;68.20
48416;DHT22;34227;51.840;4.146;2022-08-19T11:29:04;28.20;68.00
48416;DHT22;34227;51.840;4.146;2022-08-19T11:31:33;28.30;68.00
48416;DHT22;34227;51.840;4.146;2022-08-19T11:34:04;28.30;67.80
48416;DHT22;34227;51.840;4.146;2022-08-19T11:36:31;28.30;67.70
48416;DHT22;34227;51.840;4.146;2022-08-19T11:39:01;28.30;67.60
48416;DHT22;34227;51.840;4.146;2022-08-19T11:41:27;28.30;67.50
48416;DHT22;34227;51.840;4.146;2022-08-19T11:43:54;28.30;67.40
48416;DHT22;34227;51.840;4.146;2022-08-19T11:46:22;28.30;67.30
48416;DHT22;34227;51.840;4.146;2022-08-19T11:48:48;28.30;67.40
48416;DHT22;34227;51.840;4.146;2022-08-19T11:51:19;28.30;67.40
48416;DHT22;34227;51.840;4.146;2022-08-19T11:53:45;28.30;67.40
48416;DHT22;34227;51.840;4.146;2022-08-19T11:56:12;28.30;67.30
48416;DHT22;34227;51.840;4.146;2022-08-19T11:58:38;28.30;67.40
48416;DHT22;34227;51.840;4.146;2022-08-19T12:01:24;28.30;67.40
48416;DHT22;34227;51.840;4.146;2022-08-19T12:03:52;28.40;67.30
48416;DHT22;34227;51.840;4.146;2022-08-19T12:06:22;28.40;67.30
48416;DHT22;34227;51.840;4.146;2022-08-19T12:08:54;28.50;67.50
48416;DHT22;34227;51.840;4.146;2022-08-19T12:11:21;28.50;67.40
48416;DHT22;34227;51.840;4.146;2022-08-19T12:13:47;28.60;67.40
48416;DHT22;34227;51.840;4.146;2022-08-19T12:16:16;28.60;67.20
48416;DHT22;34227;51.840;4.146;2022-08-19T12:18:42;28.70;67.20
48416;DHT22;34227;51.840;4.146;2022-08-19T12:21:13;28.70;66.90
48416;DHT22;34227;51.840;4.146;2022-08-19T12:23:40;28.70;66.70
48416;DHT22;34227;51.840;4.146;2022-08-19T12:26:08;28.80;66.70
48416;DHT22;34227;51.840;4.146;2022-08-19T12:28:37;28.80;66.60
48416;DHT22;34227;51.840;4.146;2022-08-19T12:31:03;28.90;66.60
48416;DHT22;34227;51.840;4.146;2022-08-19T12:33:29;28.90;66.50
48416;DHT22;34227;51.840;4.146;2022-08-19T12:36:02;28.90;66.10
48416;DHT22;34227;51.840;4.146;2022-08-19T12:38:29;29.00;66.30
48416;DHT22;34227;51.840;4.146;2022-08-19T12:40:55;29.10;66.20
48416;DHT22;34227;51.840;4.146;2022-08-19T12:43:21;29.10;66.00
48416;DHT22;34227;51.840;4.146;2022-08-19T12:45:47;29.10;65.90
48416;DHT22;34227;51.840;4.146;2022-08-19T12:48:13;29.10;65.70
48416;DHT22;34227;51.840;4.146;2022-08-19T12:50:41;29.20;65.60
48416;DHT22;34227;51.840;4.146;2022-08-19T12:53:07;29.20;65.30
48416;DHT22;34227;51.840;4.146;2022-08-19T12:55:33;29.20;65.30
48416;DHT22;34227;51.840;4.146;2022-08-19T12:57:59;29.20;65.20
48416;DHT22;34227;51.840;4.146;2022-08-19T13:00:27;29.20;65.10
48416;DHT22;34227;51.840;4.146;2022-08-19T13:02:52;29.20;64.90
48416;DHT22;34227;51.840;4.146;2022-08-19T13:05:24;29.20;64.90
48416;DHT22;34227;51.840;4.146;2022-08-19T13:07:52;29.10;64.80
48416;DHT22;34227;51.840;4.146;2022-08-19T13:10:20;29.10;64.70
48416;DHT22;34227;51.840;4.146;2022-08-19T13:12:48;29.10;64.70
48416;DHT22;34227;51.840;4.146;2022-08-19T13:15:15;29.00;64.50
48416;DHT22;34227;51.840;4.146;2022-08-19T13:17:43;29.00;64.60
48416;DHT22;34227;51.840;4.146;2022-08-19T13:20:10;28.90;64.80
48416;DHT22;34227;51.840;4.146;2022-08-19T13:22:38;28.90;65.20
48416;DHT22;34227;51.840;4.146;2022-08-19T13:25:06;28.80;65.90
48416;DHT22;34227;51.840;4.146;2022-08-19T13:27:38;28.70;66.10
48416;DHT22;34227;51.840;4.146;2022-08-19T13:30:08;28.70;66.50
48416;DHT22;34227;51.840;4.146;2022-08-19T13:32:53;28.60;66.70
48416;DHT22;34227;51.840;4.146;2022-08-19T13:35:51;28.50;67.10
48416;DHT22;34227;51.840;4.146;2022-08-19T13:38:21;28.30;67.40
48416;DHT22;34227;51.840;4.146;2022-08-19T13:40:48;28.20;67.60
48416;DHT22;34227;51.840;4.146;2022-08-19T13:43:16;28.10;67.90
48416;DHT22;34227;51.840;4.146;2022-08-19T13:45:43;28.00;68.20
48416;DHT22;34227;51.840;4.146;2022-08-19T13:48:09;28.00;68.40
48416;DHT22;34227;51.840;4.146;2022-08-19T13:50:41;27.90;68.60
48416;DHT22;34227;51.840;4.146;2022-08-19T13:53:08;27.80;69.00
48416;DHT22;34227;51.840;4.146;2022-08-19T13:55:34;27.70;69.20
48416;DHT22;34227;51.840;4.146;2022-08-19T13:58:02;27.70;69.60
48416;DHT22;34227;51.840;4.146;2022-08-19T14:00:31;27.70;70.00
48416;DHT22;34227;51.840;4.146;2022-08-19T14:02:58;27.60;70.00
48416;DHT22;34227;51.840;4.146;2022-08-19T14:05:28;27.60;70.30
48416;DHT22;34227;51.840;4.146;2022-08-19T14:07:57;27.60;70.40
48416;DHT22;34227;51.840;4.146;2022-08-19T14:10:24;27.60;70.60
48416;DHT22;34227;51.840;4.146;2022-08-19T14:12:57;27.50;70.50
48416;DHT22;34227;51.840;4.146;2022-08-19T14:15:25;27.40;70.70
48416;DHT22;34227;51.840;4.146;2022-08-19T14:17:51;27.40;70.90
48416;DHT22;34227;51.840;4.146;2022-08-19T14:20:18;27.40;71.70
48416;DHT22;34227;51.840;4.146;2022-08-19T14:22:44;27.30;70.90
48416;DHT22;34227;51.840;4.146;2022-08-19T14:25:14;27.30;71.10
48416;DHT22;34227;51.840;4.146;2022-08-19T14:27:41;27.20;71.10
48416;DHT22;34227;51.840;4.146;2022-08-19T14:30:09;27.10;71.00
48416;DHT22;34227;51.840;4.146;2022-08-19T14:32:38;27.10;71.00
48416;DHT22;34227;51.840;4.146;2022-08-19T14:35:08;27.00;71.00
48416;DHT22;34227;51.840;4.146;2022-08-19T14:37:34;27.00;71.20
48416;DHT22;34227;51.840;4.146;2022-08-19T14:40:01;26.90;71.10
48416;DHT22;34227;51.840;4.146;2022-08-19T14:42:26;26.90;71.20
48416;DHT22;34227;51.840;4.146;2022-08-19T14:44:52;26.80;71.10
48416;DHT22;34227;51.840;4.146;2022-08-19T14:47:18;26.70;71.10
48416;DHT22;34227;51.840;4.146;2022-08-19T14:49:44;26.70;71.30
48416;DHT22;34227;51.840;4.146;2022-08-19T14:52:09;26.60;71.20
48416;DHT22;34227;51.840;4.146;2022-08-19T14:54:38;26.50;71.40
48416;DHT22;34227;51.840;4.146;2022-08-19T14:57:04;26.50;71.60
48416;DHT22;34227;51.840;4.146;2022-08-19T14:59:30;26.50;71.80
48416;DHT22;34227;51.840;4.146;2022-08-19T15:01:55;26.40;71.70
48416;DHT22;34227;51.840;4.146;2022-08-19T15:04:21;26.40;71.90
48416;DHT22;34227;51.840;4.146;2022-08-19T15:06:47;26.30;71.80
48416;DHT22;34227;51.840;4.146;2022-08-19T15:09:13;26.20;71.90
48416;DHT22;34227;51.840;4.146;2022-08-19T15:11:38;26.20;72.10
48416;DHT22;34227;51.840;4.146;2022-08-19T15:14:04;26.10;71.90
48416;DHT22;34227;51.840;4.146;2022-08-19T15:16:33;26.10;72.10
48416;DHT22;34227;51.840;4.146;2022-08-19T15:18:59;26.00;72.10
48416;DHT22;34227;51.840;4.146;2022-08-19T15:21:26;26.00;72.10
48416;DHT22;34227;51.840;4.146;2022-08-19T15:23:53;25.90;72.10
48416;DHT22;34227;51.840;4.146;2022-08-19T15:26:19;25.90;72.30
48416;DHT22;34227;51.840;4.146;2022-08-19T15:28:46;25.90;72.40
48416;DHT22;34227;51.840;4.146;2022-08-19T15:31:13;25.80;72.40
48416;DHT22;34227;51.840;4.146;2022-08-19T15:33:41;25.80;73.30
48416;DHT22;34227;51.840;4.146;2022-08-19T15:36:08;25.80;72.70
48416;DHT22;34227;51.840;4.146;2022-08-19T15:38:34;25.70;72.60
48416;DHT22;34227;51.840;4.146;2022-08-19T15:41:17;25.70;72.50
48416;DHT22;34227;51.840;4.146;2022-08-19T15:44:11;25.60;72.90
48416;DHT22;34227;51.840;4.146;2022-08-19T15:46:40;25.60;73.60
48416;DHT22;34227;51.840;4.146;2022-08-19T15:49:06;25.60;72.90